createdAt,value
2018-07-04T00:00:29.222Z,19.78
2018-07-04T00:03:08.692Z,19.72
2018-07-04T00:05:48.311Z,19.77
2018-07-04T00:08:27.909Z,19.82
2018-07-04T00:11:07.539Z,19.78
2018-07-04T00:13:46.970Z,19.84
2018-07-04T00:16:26.489Z,19.85
2018-07-04T00:19:06.037Z,19.71
2018-07-04T00:21:45.650Z,19.61
2018-07-04T00:24:25.205Z,19.60
2018-07-04T00:27:04.850Z,19.40
2018-07-04T00:29:44.481Z,19.34
2018-07-04T00:32:24.058Z,19.28
2018-07-04T00:35:03.634Z,19.31
2018-07-04T00:37:43.532Z,19.17
2018-07-04T00:40:23.251Z,19.04
2018-07-04T00:43:03.218Z,19.00
2018-07-04T00:45:42.826Z,19.07
2018-07-04T00:48:22.614Z,19.20
2018-07-04T00:51:02.454Z,19.17
2018-07-04T00:53:42.905Z,19.21
2018-07-04T00:56:22.550Z,19.28
2018-07-04T00:59:02.605Z,19.43
2018-07-04T01:01:42.824Z,19.50
2018-07-04T01:04:23.233Z,19.70
2018-07-04T01:18:25.514Z,19.50
2018-07-04T01:21:11.651Z,19.24
2018-07-04T01:23:51.221Z,19.22
2018-07-04T01:26:31.006Z,19.06
2018-07-04T01:29:10.766Z,19.08
2018-07-04T01:31:50.778Z,19.11
2018-07-04T01:34:30.322Z,19.12
2018-07-04T01:37:10.816Z,19.03
2018-07-04T01:39:50.887Z,19.01
2018-07-04T01:42:30.956Z,18.86
2018-07-04T01:45:10.641Z,18.89
2018-07-04T01:47:51.044Z,18.83
2018-07-04T01:50:31.298Z,18.68
2018-07-04T01:53:10.767Z,18.60
2018-07-04T01:55:51.075Z,18.52
2018-07-04T01:58:30.849Z,18.49
2018-07-04T02:01:10.343Z,18.42
2018-07-04T02:03:50.601Z,18.46
2018-07-04T02:06:30.274Z,18.52
2018-07-04T02:09:09.829Z,18.51
2018-07-04T02:11:49.691Z,18.68
2018-07-04T02:14:29.225Z,18.82
2018-07-04T02:17:09.006Z,18.80
2018-07-04T02:19:48.738Z,18.74
2018-07-04T02:22:29.217Z,18.76
2018-07-04T02:25:08.745Z,18.68
2018-07-04T02:27:48.360Z,18.63
2018-07-04T02:30:28.006Z,18.61
2018-07-04T02:33:08.278Z,18.55
2018-07-04T02:35:52.387Z,18.51
2018-07-04T02:38:32.219Z,18.35
2018-07-04T02:41:12.051Z,18.23
2018-07-04T02:43:52.385Z,18.08
2018-07-04T02:46:37.161Z,17.93
2018-07-04T02:49:16.797Z,17.86
2018-07-04T02:51:56.374Z,17.88
2018-07-04T02:54:37.260Z,17.95
2018-07-04T02:57:17.717Z,17.88
2018-07-04T02:59:58.464Z,17.81
2018-07-04T03:02:38.074Z,17.83
2018-07-04T03:05:17.547Z,17.75
2018-07-04T03:07:57.595Z,17.62
2018-07-04T03:10:37.518Z,17.46
2018-07-04T03:13:17.412Z,17.23
2018-07-04T03:15:58.182Z,17.17
2018-07-04T03:18:37.838Z,17.27
2018-07-04T03:21:17.804Z,17.29
2018-07-04T03:23:57.562Z,17.26
2018-07-04T03:26:37.556Z,17.13
2018-07-04T03:29:17.861Z,17.25
2018-07-04T03:31:57.661Z,17.37
2018-07-04T03:34:37.350Z,17.35
2018-07-04T03:37:17.261Z,17.05
2018-07-04T03:39:56.827Z,16.80
2018-07-04T03:42:36.578Z,16.99
2018-07-04T03:45:17.243Z,16.97
2018-07-04T03:47:57.323Z,17.05
2018-07-04T03:50:37.234Z,17.28
2018-07-04T03:53:17.467Z,17.47
2018-07-04T03:55:57.258Z,17.47
2018-07-04T03:58:37.869Z,17.55
2018-07-04T04:01:17.870Z,17.56
2018-07-04T04:03:58.524Z,17.59
2018-07-04T04:06:38.753Z,17.68
2018-07-04T04:09:18.498Z,17.83
2018-07-04T04:11:58.828Z,17.97
2018-07-04T04:14:39.613Z,17.84
2018-07-04T04:17:19.685Z,17.87
2018-07-04T04:19:59.468Z,17.99
2018-07-04T04:22:39.290Z,17.98
2018-07-04T04:25:18.953Z,17.86
2018-07-04T04:27:58.929Z,17.70
2018-07-04T04:30:38.703Z,17.67
2018-07-04T04:33:18.402Z,17.68
2018-07-04T04:35:59.308Z,17.83
2018-07-04T04:38:39.230Z,18.01
2018-07-04T04:41:19.261Z,18.29
2018-07-04T04:43:59.516Z,18.54
2018-07-04T04:46:40.098Z,18.64
2018-07-04T04:49:20.686Z,18.78
2018-07-04T04:52:00.253Z,18.72
2018-07-04T04:54:40.335Z,18.70
2018-07-04T04:57:20.116Z,18.73
2018-07-04T04:59:59.760Z,18.83
2018-07-04T05:02:40.535Z,18.90
2018-07-04T05:05:20.161Z,19.17
2018-07-04T05:07:59.862Z,19.56
2018-07-04T05:10:39.545Z,19.95
2018-07-04T05:13:20.772Z,19.97
2018-07-04T05:16:00.344Z,20.34
2018-07-04T05:18:44.621Z,20.54
2018-07-04T05:21:24.353Z,20.55
2018-07-04T05:24:04.022Z,20.37
2018-07-04T05:26:44.069Z,20.71
2018-07-04T05:29:24.559Z,20.75
2018-07-04T05:32:04.350Z,21.13
2018-07-04T05:34:44.201Z,21.18
2018-07-04T05:37:23.839Z,21.41
2018-07-04T05:40:03.406Z,21.55
2018-07-04T05:42:43.041Z,21.61
2018-07-04T05:45:23.155Z,21.59
2018-07-04T05:48:03.983Z,21.41
2018-07-04T05:50:44.359Z,21.65
2018-07-04T05:53:24.003Z,21.78
2018-07-04T05:56:04.430Z,21.80
2018-07-04T05:58:44.893Z,22.03
2018-07-04T06:01:25.650Z,22.10
2018-07-04T06:04:05.274Z,22.01
2018-07-04T06:06:45.719Z,21.91
2018-07-04T06:09:26.222Z,21.90
2018-07-04T06:12:06.478Z,21.98
2018-07-04T06:14:46.437Z,22.17
2018-07-04T06:17:26.147Z,22.18
2018-07-04T06:20:05.952Z,22.29
2018-07-04T06:22:45.536Z,22.35
2018-07-04T06:25:25.661Z,22.23
2018-07-04T06:28:06.010Z,22.53
2018-07-04T06:30:45.901Z,22.75
2018-07-04T06:33:26.331Z,23.20
2018-07-04T06:36:06.588Z,23.94
2018-07-04T06:38:34.680Z,24.48
2018-07-04T06:41:01.945Z,24.92
2018-07-04T06:43:29.236Z,25.31
2018-07-04T06:45:56.819Z,25.47
2018-07-04T06:48:24.674Z,25.33
2018-07-04T06:50:51.930Z,24.95
2018-07-04T06:53:19.289Z,25.34
2018-07-04T06:55:46.882Z,25.77
2018-07-04T06:58:14.221Z,25.83
2018-07-04T07:00:41.484Z,25.90
2018-07-04T07:03:21.410Z,25.59
2018-07-04T07:06:01.178Z,25.79
2018-07-04T07:08:40.968Z,26.00
2018-07-04T07:11:20.898Z,26.00
2018-07-04T07:14:00.500Z,25.86
2018-07-04T07:16:40.315Z,26.29
2018-07-04T07:19:20.798Z,26.66
2018-07-04T07:22:00.211Z,26.63
2018-07-04T07:24:39.877Z,26.55
2018-07-04T07:27:20.352Z,26.87
2018-07-04T07:30:00.288Z,27.54
2018-07-04T07:32:40.483Z,27.60
2018-07-04T07:35:20.281Z,27.73
2018-07-04T07:38:01.869Z,27.70
2018-07-04T07:40:42.209Z,27.81
2018-07-04T07:43:21.736Z,27.74
2018-07-04T07:46:01.225Z,28.25
2018-07-04T07:48:40.925Z,26.95
2018-07-04T07:51:21.603Z,27.63
2018-07-04T07:54:01.865Z,27.10
2018-07-04T07:56:41.602Z,26.65
2018-07-04T07:59:21.031Z,26.36
2018-07-04T08:02:01.053Z,26.33
2018-07-04T08:04:40.950Z,26.28
2018-07-04T08:07:21.377Z,26.25
2018-07-04T08:10:01.157Z,26.42
2018-07-04T08:12:41.650Z,26.50
2018-07-04T08:15:22.846Z,26.60
2018-07-04T08:18:04.375Z,26.56
2018-07-04T08:20:44.770Z,26.68
2018-07-04T08:23:29.081Z,27.02
2018-07-04T08:26:09.695Z,27.17
2018-07-04T08:28:49.727Z,27.24
2018-07-04T08:31:29.978Z,27.54
2018-07-04T08:34:09.680Z,27.23
2018-07-04T08:36:50.129Z,27.00
2018-07-04T08:39:30.419Z,27.10
2018-07-04T08:42:10.465Z,27.16
2018-07-04T08:44:50.261Z,26.92
2018-07-04T08:47:29.911Z,26.50
2018-07-04T08:50:10.332Z,26.42
2018-07-04T08:52:50.282Z,26.20
2018-07-04T08:55:30.106Z,26.07
2018-07-04T08:58:09.942Z,25.25
2018-07-04T09:00:50.772Z,24.90
2018-07-04T09:03:31.243Z,24.60
2018-07-04T09:06:11.526Z,24.36
2018-07-04T09:08:51.923Z,24.42
2018-07-04T09:11:32.382Z,24.31
2018-07-04T09:14:12.421Z,24.30
2018-07-04T09:16:52.405Z,24.44
2018-07-04T09:19:32.034Z,24.74
2018-07-04T09:22:11.922Z,24.87
2018-07-04T09:24:51.940Z,24.79
2018-07-04T09:27:32.427Z,24.92
2018-07-04T09:30:12.997Z,24.81
2018-07-04T09:32:53.468Z,24.72
2018-07-04T09:35:33.596Z,25.31
2018-07-04T09:38:13.122Z,26.13
2018-07-04T09:40:52.705Z,25.83
2018-07-04T09:43:32.817Z,25.87
2018-07-04T09:46:12.297Z,26.24
2018-07-04T09:48:52.189Z,25.68
2018-07-04T09:51:31.689Z,25.87
2018-07-04T09:54:11.197Z,26.06
2018-07-04T09:56:51.285Z,25.97
2018-07-04T09:59:31.212Z,26.29
2018-07-04T10:02:11.524Z,25.80
2018-07-04T10:04:51.478Z,26.15
2018-07-04T10:07:31.185Z,25.87
2018-07-04T10:10:11.966Z,26.28
2018-07-04T10:12:51.536Z,26.71
2018-07-04T10:15:32.270Z,27.44
2018-07-04T10:18:12.246Z,27.70
2018-07-04T10:20:52.217Z,27.14
2018-07-04T10:23:32.281Z,26.95
2018-07-04T10:26:12.831Z,27.13
2018-07-04T10:28:53.738Z,26.78
2018-07-04T10:31:34.110Z,27.33
2018-07-04T10:34:15.566Z,27.64
2018-07-04T10:36:54.918Z,27.87
2018-07-04T10:39:37.724Z,27.76
2018-07-04T10:42:17.909Z,27.87
2018-07-04T10:44:57.477Z,27.09
2018-07-04T10:47:37.085Z,27.63
2018-07-04T10:50:17.017Z,27.94
2018-07-04T10:52:57.750Z,28.20
2018-07-04T10:55:37.571Z,28.24
2018-07-04T10:58:17.078Z,28.22
2018-07-04T11:00:56.713Z,28.59
2018-07-04T11:03:36.518Z,28.67
2018-07-04T11:06:16.267Z,28.35
2018-07-04T11:08:56.335Z,28.45
2018-07-04T11:11:35.935Z,28.91
2018-07-04T11:14:15.681Z,27.95
2018-07-04T11:16:55.889Z,27.71
2018-07-04T11:19:35.508Z,28.02
2018-07-04T11:22:15.249Z,27.42
2018-07-04T11:24:54.921Z,26.89
2018-07-04T11:27:35.445Z,26.86
2018-07-04T11:30:15.150Z,27.01
2018-07-04T11:32:55.405Z,27.30
2018-07-04T11:35:34.973Z,26.84
2018-07-04T11:38:15.710Z,27.06
2018-07-04T11:40:55.426Z,26.58
2018-07-04T11:43:35.342Z,26.35
2018-07-04T11:46:04.280Z,26.36
2018-07-04T11:48:32.179Z,26.32
2018-07-04T11:50:59.917Z,26.37
2018-07-04T11:53:27.951Z,26.42
2018-07-04T11:55:55.294Z,26.19
2018-07-04T11:58:22.764Z,25.85
2018-07-04T12:00:50.210Z,25.95
2018-07-04T12:03:21.566Z,26.00
2018-07-04T12:06:01.233Z,25.98
2018-07-04T12:08:28.937Z,26.03
2018-07-04T12:10:58.117Z,25.94
2018-07-04T12:13:28.670Z,26.11
2018-07-04T12:15:56.604Z,26.12
2018-07-04T12:18:25.698Z,25.56
2018-07-04T12:20:54.519Z,24.98
2018-07-04T12:23:22.638Z,24.38
2018-07-04T12:25:50.382Z,24.36
2018-07-04T12:28:18.573Z,24.20
2018-07-04T12:30:47.441Z,23.93
2018-07-04T12:33:17.227Z,23.75
2018-07-04T12:35:44.755Z,23.36
2018-07-04T12:38:12.106Z,23.02
2018-07-04T12:40:40.560Z,23.11
2018-07-04T12:43:08.597Z,23.07
2018-07-04T12:45:39.584Z,22.95
2018-07-04T12:48:06.902Z,22.77
2018-07-04T12:50:35.095Z,22.84
2018-07-04T12:53:02.778Z,22.73
2018-07-04T12:55:43.935Z,22.72
2018-07-04T12:58:24.808Z,22.76
2018-07-04T13:01:04.798Z,22.61
2018-07-04T13:03:44.491Z,22.63
2018-07-04T13:06:24.557Z,22.47
2018-07-04T13:09:05.882Z,22.43
2018-07-04T13:11:45.787Z,22.47
2018-07-04T13:14:25.426Z,22.52
2018-07-04T13:17:05.699Z,22.64
2018-07-04T13:19:45.740Z,22.47
2018-07-04T13:22:26.237Z,22.74
2018-07-04T13:25:06.341Z,22.97
2018-07-04T13:27:46.339Z,23.08
2018-07-04T13:30:26.453Z,23.32
2018-07-04T13:33:07.369Z,23.72
2018-07-04T13:35:47.261Z,24.03
2018-07-04T13:38:27.224Z,24.04
2018-07-04T13:41:06.726Z,24.06
2018-07-04T13:43:47.017Z,24.46
2018-07-04T13:46:27.929Z,24.55
2018-07-04T13:49:08.957Z,24.41
2018-07-04T13:51:49.732Z,24.72
2018-07-04T13:54:29.556Z,24.97
2018-07-04T13:57:09.234Z,24.80
2018-07-04T13:59:48.821Z,24.84
2018-07-04T14:02:28.910Z,25.50
2018-07-04T14:05:08.956Z,25.15
2018-07-04T14:07:48.480Z,25.72
2018-07-04T14:10:28.099Z,26.03
2018-07-04T14:13:08.007Z,25.84
2018-07-04T14:15:48.389Z,26.30
2018-07-04T14:18:28.448Z,26.66
2018-07-04T14:21:08.757Z,25.63
2018-07-04T14:23:48.445Z,25.85
2018-07-04T14:26:28.045Z,26.15
2018-07-04T14:29:08.070Z,26.33
2018-07-04T14:31:47.865Z,26.07
2018-07-04T14:34:27.530Z,26.09
2018-07-04T14:37:06.878Z,26.30
2018-07-04T14:39:46.514Z,26.12
2018-07-04T14:42:25.882Z,26.31
2018-07-04T14:45:05.556Z,26.27
2018-07-04T14:47:44.994Z,26.04
2018-07-04T14:50:24.586Z,26.06
2018-07-04T14:53:04.094Z,26.38
2018-07-04T14:55:43.702Z,26.17
2018-07-04T14:58:23.210Z,26.03
2018-07-04T15:01:02.786Z,25.98
2018-07-04T15:03:42.398Z,26.11
2018-07-04T15:06:22.027Z,25.81
2018-07-04T15:09:01.385Z,25.95
2018-07-04T15:11:40.906Z,26.25
2018-07-04T15:14:20.355Z,26.27
2018-07-04T15:16:59.968Z,26.14
2018-07-04T15:19:39.461Z,25.59
2018-07-04T15:22:19.096Z,25.84
2018-07-04T15:24:58.585Z,25.82
2018-07-04T15:27:38.030Z,25.72
2018-07-04T15:30:17.601Z,25.93
2018-07-04T15:32:57.133Z,25.98
2018-07-04T15:35:36.637Z,25.63
2018-07-04T15:38:16.212Z,25.64
2018-07-04T15:40:55.782Z,25.78
2018-07-04T15:43:35.257Z,25.71
2018-07-04T15:46:14.881Z,25.25
2018-07-04T15:48:54.477Z,25.67
2018-07-04T15:51:33.926Z,25.35
2018-07-04T15:54:13.589Z,25.49
2018-07-04T15:56:53.076Z,25.22
2018-07-04T15:59:32.640Z,25.69
2018-07-04T16:02:12.178Z,25.85
2018-07-04T16:04:52.591Z,25.90
2018-07-04T16:07:32.157Z,26.12
2018-07-04T16:10:11.805Z,25.87
2018-07-04T16:12:51.281Z,25.97
2018-07-04T16:15:30.719Z,26.19
2018-07-04T16:18:10.330Z,26.00
2018-07-04T16:20:49.786Z,26.01
2018-07-04T16:23:29.263Z,26.08
2018-07-04T16:26:08.870Z,25.89
2018-07-04T16:28:48.456Z,25.76
2018-07-04T16:31:28.082Z,26.41
2018-07-04T16:34:07.654Z,26.26
2018-07-04T16:36:47.393Z,26.28
2018-07-04T16:39:26.733Z,26.25
2018-07-04T16:42:07.269Z,26.29
2018-07-04T16:44:46.861Z,26.28
2018-07-04T16:47:26.302Z,26.04
2018-07-04T16:50:05.922Z,26.11
2018-07-04T16:52:45.497Z,26.32
2018-07-04T16:55:25.000Z,26.04
2018-07-04T16:58:04.633Z,26.54
2018-07-04T17:00:44.222Z,26.83
2018-07-04T17:03:23.846Z,27.22
2018-07-04T17:06:03.461Z,28.18
2018-07-04T17:08:43.155Z,28.95
2018-07-04T17:11:22.770Z,29.04
2018-07-04T17:14:02.222Z,29.69
2018-07-04T17:16:41.759Z,29.67
2018-07-04T17:19:21.231Z,29.74
2018-07-04T17:22:00.708Z,29.80
2018-07-04T17:24:40.342Z,28.85
2018-07-04T17:27:19.801Z,28.46
2018-07-04T17:29:59.345Z,28.07
2018-07-04T17:32:38.949Z,27.03
2018-07-04T17:35:18.673Z,27.01
2018-07-04T17:37:58.183Z,26.77
2018-07-04T17:40:37.789Z,26.12
2018-07-04T17:43:17.293Z,26.20
2018-07-04T17:45:56.777Z,26.34
2018-07-04T17:48:36.353Z,26.18
2018-07-04T17:51:15.998Z,26.16
2018-07-04T17:53:55.581Z,26.31
2018-07-04T17:56:35.181Z,26.64
2018-07-04T17:59:14.817Z,27.49
2018-07-04T18:01:54.456Z,27.53
2018-07-04T18:04:33.909Z,27.33
2018-07-04T18:07:14.348Z,26.99
2018-07-04T18:09:53.850Z,26.77
2018-07-04T18:12:33.425Z,26.42
2018-07-04T18:15:12.889Z,26.45
2018-07-04T18:17:52.488Z,26.50
2018-07-04T18:20:31.767Z,26.45
2018-07-04T18:23:11.359Z,26.46
2018-07-04T18:25:50.971Z,26.81
2018-07-04T18:28:30.529Z,27.45
2018-07-04T18:31:10.021Z,28.54
2018-07-04T18:33:49.558Z,29.54
2018-07-04T18:36:28.899Z,29.08
2018-07-04T18:39:08.465Z,27.95
2018-07-04T18:41:48.079Z,26.96
2018-07-04T18:44:27.508Z,26.29
2018-07-04T18:47:06.902Z,25.79
2018-07-04T18:49:46.305Z,25.08
2018-07-04T18:52:25.741Z,24.64
2018-07-04T18:55:05.214Z,24.58
2018-07-04T18:57:44.842Z,24.55
2018-07-04T19:00:24.418Z,24.44
2018-07-04T19:03:03.900Z,24.36
2018-07-04T19:05:43.629Z,24.20
2018-07-04T19:08:23.125Z,24.05
2018-07-04T19:11:02.602Z,23.97
2018-07-04T19:13:42.219Z,23.83
2018-07-04T19:16:21.812Z,23.86
2018-07-04T19:19:01.390Z,23.74
2018-07-04T19:21:41.321Z,23.38
2018-07-04T19:24:20.837Z,23.30
2018-07-04T19:27:01.362Z,23.12
2018-07-04T19:29:41.001Z,23.01
2018-07-04T19:32:21.068Z,22.99
2018-07-04T19:35:00.633Z,22.87
2018-07-04T19:37:40.276Z,22.78
2018-07-04T19:40:20.858Z,22.61
2018-07-04T19:43:00.470Z,22.46
2018-07-04T19:45:40.029Z,22.38
2018-07-04T19:48:19.598Z,22.22
2018-07-04T19:50:59.161Z,22.04
2018-07-04T19:56:11.774Z,21.68
2018-07-04T19:58:51.492Z,21.50
2018-07-04T20:01:31.035Z,21.38
2018-07-04T20:04:10.536Z,21.29
2018-07-04T20:06:50.217Z,21.15
2018-07-04T20:09:31.189Z,21.05
2018-07-04T20:12:10.598Z,20.86
2018-07-04T20:14:50.250Z,20.80
2018-07-04T20:17:29.866Z,20.74
2018-07-04T20:20:09.379Z,20.75
2018-07-04T20:22:49.980Z,20.68
2018-07-04T20:25:29.756Z,20.67
2018-07-04T20:28:09.249Z,20.60
2018-07-04T20:30:52.690Z,20.52
2018-07-04T20:33:33.514Z,20.42
2018-07-04T20:36:13.126Z,20.40
2018-07-04T20:38:52.747Z,20.47
2018-07-04T20:41:32.201Z,20.45
2018-07-04T20:44:11.817Z,20.46
2018-07-04T20:46:51.367Z,20.48
2018-07-04T20:49:30.807Z,20.37
2018-07-04T20:52:10.469Z,20.47
2018-07-04T20:54:49.992Z,20.37
2018-07-04T20:57:29.657Z,20.38
2018-07-04T21:00:09.236Z,20.28
2018-07-04T21:02:48.739Z,20.19
2018-07-04T21:05:28.348Z,20.19
2018-07-04T21:08:07.925Z,20.13
2018-07-04T21:10:47.475Z,20.08
2018-07-04T21:13:26.985Z,20.06
2018-07-04T21:16:06.651Z,19.91
2018-07-04T21:18:46.134Z,19.78
2018-07-04T21:21:25.615Z,19.62
2018-07-04T21:24:05.298Z,19.52
2018-07-04T21:26:44.771Z,19.52
2018-07-04T21:29:24.750Z,19.58
2018-07-04T21:32:04.207Z,19.56
2018-07-04T21:34:43.644Z,19.50
2018-07-04T21:37:23.272Z,19.59
2018-07-04T21:40:02.850Z,19.54
2018-07-04T21:42:42.648Z,19.51
2018-07-04T21:45:22.233Z,19.49
2018-07-04T21:48:01.830Z,19.34
2018-07-04T21:50:41.358Z,19.29
2018-07-04T21:53:20.983Z,19.31
2018-07-04T21:56:00.610Z,19.35
2018-07-04T21:58:40.804Z,19.46
2018-07-04T22:01:20.260Z,19.47
2018-07-04T22:03:59.847Z,19.49
2018-07-04T22:06:39.426Z,19.52
2018-07-04T22:09:19.014Z,19.51
2018-07-04T22:11:58.608Z,19.28
2018-07-04T22:14:38.192Z,18.97
2018-07-04T22:17:17.601Z,18.83
2018-07-04T22:19:57.094Z,18.88
2018-07-04T22:22:36.692Z,18.62
2018-07-04T22:25:16.137Z,18.56
2018-07-04T22:27:55.595Z,18.58
2018-07-04T22:30:35.162Z,18.47
2018-07-04T22:33:14.776Z,18.40
2018-07-04T22:35:54.264Z,18.28
2018-07-04T22:38:33.790Z,18.27
2018-07-04T22:41:13.381Z,18.22
2018-07-04T22:43:52.969Z,18.24
2018-07-04T22:46:32.473Z,18.23
2018-07-04T22:49:12.056Z,18.12
2018-07-04T22:51:51.637Z,18.06
2018-07-04T22:54:31.139Z,17.95
2018-07-04T22:57:10.721Z,17.98
2018-07-04T22:59:50.290Z,18.11
2018-07-04T23:02:29.862Z,18.28
2018-07-04T23:05:09.449Z,18.32
2018-07-04T23:07:49.030Z,18.29
2018-07-04T23:10:28.609Z,18.28
2018-07-04T23:13:08.187Z,18.31
2018-07-04T23:15:47.794Z,18.24
2018-07-04T23:18:27.441Z,18.16
2018-07-04T23:21:07.009Z,18.17
2018-07-04T23:23:46.973Z,18.08
2018-07-04T23:26:26.421Z,18.01
2018-07-04T23:29:06.046Z,17.90
2018-07-04T23:31:45.644Z,17.87
2018-07-04T23:34:25.139Z,17.86
2018-07-04T23:37:04.774Z,17.85
2018-07-04T23:39:44.649Z,17.75
2018-07-04T23:42:24.123Z,17.83
2018-07-04T23:45:03.696Z,17.86
2018-07-04T23:47:43.291Z,17.91
2018-07-04T23:50:22.947Z,17.96
2018-07-04T23:53:02.496Z,18.00
2018-07-04T23:55:42.114Z,17.99
2018-07-04T23:58:21.714Z,18.02
